sensor_id;sensor_type;location;lat;lon;timestamp;P1;durP1;ratioP1;P2;durP2;ratioP2
35324;SDS011;35135;47.510;19.036;2023-04-24T00:01:43;4.15;;;3.53;;
35324;SDS011;35135;47.510;19.036;2023-04-24T00:04:08;4.07;;;3.67;;
35324;SDS011;35135;47.510;19.036;2023-04-24T00:06:36;4.20;;;3.80;;
35324;SDS011;35135;47.510;19.036;2023-04-24T00:09:05;3.88;;;3.40;;
35324;SDS011;35135;47.510;19.036;2023-04-24T00:11:30;4.20;;;3.67;;
35324;SDS011;35135;47.510;19.036;2023-04-24T00:13:56;4.65;;;3.95;;
35324;SDS011;35135;47.510;19.036;2023-04-24T00:16:22;3.67;;;3.38;;
35324;SDS011;35135;47.510;19.036;2023-04-24T00:18:48;4.63;;;3.85;;
35324;SDS011;35135;47.510;19.036;2023-04-24T00:21:14;5.20;;;3.95;;
35324;SDS011;35135;47.510;19.036;2023-04-24T00:23:42;4.78;;;4.05;;
35324;SDS011;35135;47.510;19.036;2023-04-24T00:26:09;4.70;;;4.20;;
35324;SDS011;35135;47.510;19.036;2023-04-24T00:28:35;4.20;;;3.70;;
35324;SDS011;35135;47.510;19.036;2023-04-24T00:31:01;4.18;;;3.72;;
35324;SDS011;35135;47.510;19.036;2023-04-24T00:33:26;4.60;;;3.63;;
35324;SDS011;35135;47.510;19.036;2023-04-24T00:35:52;4.30;;;3.55;;
35324;SDS011;35135;47.510;19.036;2023-04-24T00:38:18;5.55;;;3.75;;
35324;SDS011;35135;47.510;19.036;2023-04-24T00:40:44;5.05;;;3.75;;
35324;SDS011;35135;47.510;19.036;2023-04-24T00:43:10;4.03;;;3.22;;
35324;SDS011;35135;47.510;19.036;2023-04-24T00:45:36;4.38;;;3.97;;
35324;SDS011;35135;47.510;19.036;2023-04-24T00:48:02;4.25;;;3.85;;
35324;SDS011;35135;47.510;19.036;2023-04-24T00:50:28;4.97;;;3.80;;
35324;SDS011;35135;47.510;19.036;2023-04-24T00:52:55;4.30;;;3.78;;
35324;SDS011;35135;47.510;19.036;2023-04-24T00:55:21;4.70;;;3.92;;
35324;SDS011;35135;47.510;19.036;2023-04-24T00:57:46;5.40;;;3.97;;
35324;SDS011;35135;47.510;19.036;2023-04-24T01:00:13;3.97;;;3.58;;
35324;SDS011;35135;47.510;19.036;2023-04-24T01:02:41;3.95;;;3.33;;
35324;SDS011;35135;47.510;19.036;2023-04-24T01:05:10;4.70;;;3.75;;
35324;SDS011;35135;47.510;19.036;2023-04-24T01:07:37;5.97;;;4.10;;
35324;SDS011;35135;47.510;19.036;2023-04-24T01:10:06;4.32;;;3.92;;
35324;SDS011;35135;47.510;19.036;2023-04-24T01:12:33;3.83;;;3.53;;
35324;SDS011;35135;47.510;19.036;2023-04-24T01:14:59;4.07;;;3.70;;
35324;SDS011;35135;47.510;19.036;2023-04-24T01:17:24;4.82;;;4.05;;
35324;SDS011;35135;47.510;19.036;2023-04-24T01:19:50;4.60;;;4.15;;
35324;SDS011;35135;47.510;19.036;2023-04-24T01:22:18;4.93;;;4.10;;
35324;SDS011;35135;47.510;19.036;2023-04-24T01:24:46;3.97;;;3.53;;
35324;SDS011;35135;47.510;19.036;2023-04-24T01:27:12;4.15;;;3.75;;
35324;SDS011;35135;47.510;19.036;2023-04-24T01:29:38;4.18;;;3.70;;
35324;SDS011;35135;47.510;19.036;2023-04-24T01:32:04;3.47;;;3.17;;
35324;SDS011;35135;47.510;19.036;2023-04-24T01:34:30;4.22;;;3.83;;
35324;SDS011;35135;47.510;19.036;2023-04-24T01:36:56;6.15;;;4.05;;
35324;SDS011;35135;47.510;19.036;2023-04-24T01:39:22;3.97;;;2.97;;
35324;SDS011;35135;47.510;19.036;2023-04-24T01:41:50;4.10;;;3.70;;
35324;SDS011;35135;47.510;19.036;2023-04-24T01:44:17;4.43;;;3.90;;
35324;SDS011;35135;47.510;19.036;2023-04-24T01:46:43;4.13;;;3.72;;
35324;SDS011;35135;47.510;19.036;2023-04-24T01:49:09;4.18;;;3.78;;
35324;SDS011;35135;47.510;19.036;2023-04-24T01:51:35;4.32;;;3.92;;
35324;SDS011;35135;47.510;19.036;2023-04-24T01:54:01;4.28;;;3.70;;
35324;SDS011;35135;47.510;19.036;2023-04-24T01:56:28;3.80;;;3.40;;
35324;SDS011;35135;47.510;19.036;2023-04-24T01:58:55;5.93;;;4.22;;
35324;SDS011;35135;47.510;19.036;2023-04-24T02:01:23;4.10;;;3.63;;
35324;SDS011;35135;47.510;19.036;2023-04-24T02:03:49;5.13;;;3.45;;
35324;SDS011;35135;47.510;19.036;2023-04-24T02:06:15;4.22;;;3.83;;
35324;SDS011;35135;47.510;19.036;2023-04-24T02:08:41;4.55;;;3.72;;
35324;SDS011;35135;47.510;19.036;2023-04-24T02:11:10;5.43;;;3.83;;
35324;SDS011;35135;47.510;19.036;2023-04-24T02:13:36;4.88;;;3.50;;
35324;SDS011;35135;47.510;19.036;2023-04-24T02:16:01;5.10;;;3.97;;
35324;SDS011;35135;47.510;19.036;2023-04-24T02:18:27;3.67;;;3.38;;
35324;SDS011;35135;47.510;19.036;2023-04-24T02:20:53;5.55;;;3.83;;
35324;SDS011;35135;47.510;19.036;2023-04-24T02:23:19;4.18;;;3.88;;
35324;SDS011;35135;47.510;19.036;2023-04-24T02:25:45;4.38;;;3.67;;
35324;SDS011;35135;47.510;19.036;2023-04-24T02:28:11;5.30;;;3.55;;
35324;SDS011;35135;47.510;19.036;2023-04-24T02:30:36;4.70;;;3.53;;
35324;SDS011;35135;47.510;19.036;2023-04-24T02:33:02;4.00;;;3.60;;
35324;SDS011;35135;47.510;19.036;2023-04-24T02:35:28;4.53;;;3.50;;
35324;SDS011;35135;47.510;19.036;2023-04-24T02:37:54;4.10;;;3.65;;
35324;SDS011;35135;47.510;19.036;2023-04-24T02:40:20;3.47;;;3.17;;
35324;SDS011;35135;47.510;19.036;2023-04-24T02:42:46;4.05;;;3.65;;
35324;SDS011;35135;47.510;19.036;2023-04-24T02:45:11;3.88;;;3.53;;
35324;SDS011;35135;47.510;19.036;2023-04-24T02:47:37;3.97;;;3.50;;
35324;SDS011;35135;47.510;19.036;2023-04-24T02:50:03;3.67;;;3.38;;
35324;SDS011;35135;47.510;19.036;2023-04-24T02:52:29;4.28;;;3.85;;
35324;SDS011;35135;47.510;19.036;2023-04-24T02:54:55;4.35;;;3.45;;
35324;SDS011;35135;47.510;19.036;2023-04-24T02:57:21;4.13;;;3.75;;
35324;SDS011;35135;47.510;19.036;2023-04-24T02:59:46;4.82;;;4.05;;
35324;SDS011;35135;47.510;19.036;2023-04-24T03:02:12;3.97;;;3.40;;
35324;SDS011;35135;47.510;19.036;2023-04-24T03:04:38;3.83;;;3.45;;
35324;SDS011;35135;47.510;19.036;2023-04-24T03:07:05;3.90;;;3.40;;
35324;SDS011;35135;47.510;19.036;2023-04-24T03:09:30;4.88;;;3.50;;
35324;SDS011;35135;47.510;19.036;2023-04-24T03:11:56;4.50;;;3.78;;
35324;SDS011;35135;47.510;19.036;2023-04-24T03:14:23;3.97;;;3.50;;
35324;SDS011;35135;47.510;19.036;2023-04-24T03:16:48;3.95;;;3.45;;
35324;SDS011;35135;47.510;19.036;2023-04-24T03:19:15;4.32;;;3.40;;
35324;SDS011;35135;47.510;19.036;2023-04-24T03:21:40;4.45;;;3.83;;
35324;SDS011;35135;47.510;19.036;2023-04-24T03:24:07;4.20;;;3.63;;
35324;SDS011;35135;47.510;19.036;2023-04-24T03:26:33;4.35;;;3.70;;
35324;SDS011;35135;47.510;19.036;2023-04-24T03:28:59;3.92;;;3.53;;
35324;SDS011;35135;47.510;19.036;2023-04-24T03:31:24;3.88;;;3.50;;
35324;SDS011;35135;47.510;19.036;2023-04-24T03:33:50;4.45;;;3.65;;
35324;SDS011;35135;47.510;19.036;2023-04-24T03:36:16;4.88;;;3.67;;
35324;SDS011;35135;47.510;19.036;2023-04-24T03:38:42;4.30;;;3.90;;
35324;SDS011;35135;47.510;19.036;2023-04-24T03:41:08;4.00;;;3.60;;
35324;SDS011;35135;47.510;19.036;2023-04-24T03:43:33;3.63;;;3.33;;
35324;SDS011;35135;47.510;19.036;2023-04-24T03:45:59;3.75;;;3.45;;
35324;SDS011;35135;47.510;19.036;2023-04-24T03:48:25;3.72;;;3.42;;
35324;SDS011;35135;47.510;19.036;2023-04-24T03:50:51;4.05;;;3.65;;
35324;SDS011;35135;47.510;19.036;2023-04-24T03:53:17;3.92;;;3.53;;
35324;SDS011;35135;47.510;19.036;2023-04-24T03:55:42;4.20;;;3.80;;
35324;SDS011;35135;47.510;19.036;2023-04-24T03:58:08;3.78;;;3.38;;
35324;SDS011;35135;47.510;19.036;2023-04-24T04:00:33;3.85;;;3.55;;
35324;SDS011;35135;47.510;19.036;2023-04-24T04:02:59;4.13;;;3.38;;
35324;SDS011;35135;47.510;19.036;2023-04-24T04:05:25;4.55;;;3.47;;
35324;SDS011;35135;47.510;19.036;2023-04-24T04:07:51;4.28;;;3.80;;
35324;SDS011;35135;47.510;19.036;2023-04-24T04:10:16;4.18;;;3.55;;
35324;SDS011;35135;47.510;19.036;2023-04-24T04:12:42;4.13;;;3.53;;
35324;SDS011;35135;47.510;19.036;2023-04-24T04:15:08;4.00;;;3.60;;
35324;SDS011;35135;47.510;19.036;2023-04-24T04:17:34;4.28;;;3.10;;
35324;SDS011;35135;47.510;19.036;2023-04-24T04:20:00;5.28;;;3.70;;
35324;SDS011;35135;47.510;19.036;2023-04-24T04:22:26;3.42;;;3.13;;
35324;SDS011;35135;47.510;19.036;2023-04-24T04:24:51;3.58;;;3.28;;
35324;SDS011;35135;47.510;19.036;2023-04-24T04:27:18;3.45;;;3.15;;
35324;SDS011;35135;47.510;19.036;2023-04-24T04:29:44;3.60;;;3.30;;
35324;SDS011;35135;47.510;19.036;2023-04-24T04:32:10;5.18;;;3.40;;
35324;SDS011;35135;47.510;19.036;2023-04-24T04:34:35;3.47;;;3.17;;
35324;SDS011;35135;47.510;19.036;2023-04-24T04:37:02;3.83;;;3.42;;
35324;SDS011;35135;47.510;19.036;2023-04-24T04:39:28;4.15;;;3.75;;
35324;SDS011;35135;47.510;19.036;2023-04-24T04:41:55;4.32;;;3.58;;
35324;SDS011;35135;47.510;19.036;2023-04-24T04:44:21;4.63;;;3.78;;
35324;SDS011;35135;47.510;19.036;2023-04-24T04:46:47;4.45;;;3.97;;
35324;SDS011;35135;47.510;19.036;2023-04-24T04:49:12;3.92;;;3.63;;
35324;SDS011;35135;47.510;19.036;2023-04-24T04:51:41;4.28;;;3.88;;
35324;SDS011;35135;47.510;19.036;2023-04-24T04:54:07;5.40;;;3.60;;
35324;SDS011;35135;47.510;19.036;2023-04-24T04:56:32;4.30;;;3.75;;
35324;SDS011;35135;47.510;19.036;2023-04-24T04:58:58;3.95;;;3.53;;
35324;SDS011;35135;47.510;19.036;2023-04-24T05:01:24;4.20;;;3.80;;
35324;SDS011;35135;47.510;19.036;2023-04-24T05:03:52;3.92;;;3.33;;
35324;SDS011;35135;47.510;19.036;2023-04-24T05:06:18;4.28;;;3.88;;
35324;SDS011;35135;47.510;19.036;2023-04-24T05:08:44;3.92;;;3.47;;
35324;SDS011;35135;47.510;19.036;2023-04-24T05:11:10;4.38;;;3.95;;
35324;SDS011;35135;47.510;19.036;2023-04-24T05:13:35;4.22;;;3.83;;
35324;SDS011;35135;47.510;19.036;2023-04-24T05:16:01;4.18;;;3.78;;
35324;SDS011;35135;47.510;19.036;2023-04-24T05:18:28;3.85;;;3.55;;
35324;SDS011;35135;47.510;19.036;2023-04-24T05:20:55;4.40;;;4.00;;
35324;SDS011;35135;47.510;19.036;2023-04-24T05:23:21;6.72;;;4.07;;
35324;SDS011;35135;47.510;19.036;2023-04-24T05:25:52;4.35;;;3.83;;
35324;SDS011;35135;47.510;19.036;2023-04-24T05:28:26;6.32;;;3.92;;
35324;SDS011;35135;47.510;19.036;2023-04-24T05:30:54;5.88;;;4.25;;
35324;SDS011;35135;47.510;19.036;2023-04-24T05:33:23;10.13;;;4.70;;
35324;SDS011;35135;47.510;19.036;2023-04-24T05:35:50;7.30;;;4.65;;
35324;SDS011;35135;47.510;19.036;2023-04-24T05:38:16;10.73;;;5.80;;
35324;SDS011;35135;47.510;19.036;2023-04-24T05:40:45;7.65;;;4.65;;
35324;SDS011;35135;47.510;19.036;2023-04-24T05:43:11;6.75;;;5.45;;
35324;SDS011;35135;47.510;19.036;2023-04-24T05:45:39;6.35;;;5.47;;
35324;SDS011;35135;47.510;19.036;2023-04-24T05:48:05;8.68;;;5.05;;
35324;SDS011;35135;47.510;19.036;2023-04-24T05:50:32;6.50;;;5.18;;
35324;SDS011;35135;47.510;19.036;2023-04-24T05:53:00;10.45;;;5.50;;
35324;SDS011;35135;47.510;19.036;2023-04-24T05:55:30;7.80;;;4.70;;
35324;SDS011;35135;47.510;19.036;2023-04-24T05:57:56;9.27;;;5.30;;
35324;SDS011;35135;47.510;19.036;2023-04-24T06:00:23;10.85;;;6.07;;
35324;SDS011;35135;47.510;19.036;2023-04-24T06:02:49;7.85;;;5.45;;
35324;SDS011;35135;47.510;19.036;2023-04-24T06:05:15;9.52;;;5.93;;
35324;SDS011;35135;47.510;19.036;2023-04-24T06:07:41;6.32;;;4.93;;
35324;SDS011;35135;47.510;19.036;2023-04-24T06:10:07;6.18;;;4.90;;
35324;SDS011;35135;47.510;19.036;2023-04-24T06:12:33;8.23;;;5.30;;
35324;SDS011;35135;47.510;19.036;2023-04-24T06:14:58;12.07;;;5.25;;
35324;SDS011;35135;47.510;19.036;2023-04-24T06:17:25;10.65;;;5.03;;
35324;SDS011;35135;47.510;19.036;2023-04-24T06:19:50;9.70;;;5.28;;
35324;SDS011;35135;47.510;19.036;2023-04-24T06:22:16;14.55;;;5.18;;
35324;SDS011;35135;47.510;19.036;2023-04-24T06:24:42;11.10;;;5.30;;
35324;SDS011;35135;47.510;19.036;2023-04-24T06:27:07;13.35;;;4.75;;
35324;SDS011;35135;47.510;19.036;2023-04-24T06:29:33;15.40;;;5.22;;
35324;SDS011;35135;47.510;19.036;2023-04-24T06:31:59;7.60;;;4.82;;
35324;SDS011;35135;47.510;19.036;2023-04-24T06:34:25;8.30;;;5.03;;
35324;SDS011;35135;47.510;19.036;2023-04-24T06:36:50;13.05;;;6.50;;
35324;SDS011;35135;47.510;19.036;2023-04-24T06:39:16;11.32;;;7.30;;
35324;SDS011;35135;47.510;19.036;2023-04-24T06:41:42;11.13;;;7.13;;
35324;SDS011;35135;47.510;19.036;2023-04-24T06:44:07;9.82;;;6.32;;
35324;SDS011;35135;47.510;19.036;2023-04-24T06:46:33;11.73;;;6.65;;
35324;SDS011;35135;47.510;19.036;2023-04-24T06:48:59;10.70;;;6.20;;
35324;SDS011;35135;47.510;19.036;2023-04-24T06:51:26;10.60;;;6.38;;
35324;SDS011;35135;47.510;19.036;2023-04-24T06:53:55;9.38;;;6.10;;
35324;SDS011;35135;47.510;19.036;2023-04-24T06:56:23;9.50;;;5.82;;
35324;SDS011;35135;47.510;19.036;2023-04-24T06:58:50;7.13;;;5.78;;
35324;SDS011;35135;47.510;19.036;2023-04-24T07:01:16;8.60;;;5.57;;
35324;SDS011;35135;47.510;19.036;2023-04-24T07:03:42;8.02;;;6.00;;
35324;SDS011;35135;47.510;19.036;2023-04-24T07:06:07;8.55;;;5.50;;
35324;SDS011;35135;47.510;19.036;2023-04-24T07:08:35;9.98;;;5.15;;
35324;SDS011;35135;47.510;19.036;2023-04-24T07:11:01;9.18;;;5.78;;
35324;SDS011;35135;47.510;19.036;2023-04-24T07:13:27;9.82;;;5.47;;
35324;SDS011;35135;47.510;19.036;2023-04-24T07:15:53;11.02;;;6.32;;
35324;SDS011;35135;47.510;19.036;2023-04-24T07:18:20;7.18;;;5.50;;
35324;SDS011;35135;47.510;19.036;2023-04-24T07:20:46;8.50;;;5.93;;
35324;SDS011;35135;47.510;19.036;2023-04-24T07:23:12;8.85;;;5.07;;
35324;SDS011;35135;47.510;19.036;2023-04-24T07:25:38;9.82;;;5.40;;
35324;SDS011;35135;47.510;19.036;2023-04-24T07:28:04;9.30;;;5.13;;
35324;SDS011;35135;47.510;19.036;2023-04-24T07:30:30;7.82;;;4.65;;
35324;SDS011;35135;47.510;19.036;2023-04-24T07:32:58;5.97;;;4.38;;
35324;SDS011;35135;47.510;19.036;2023-04-24T07:35:24;6.10;;;4.78;;
35324;SDS011;35135;47.510;19.036;2023-04-24T07:37:51;9.10;;;4.82;;
35324;SDS011;35135;47.510;19.036;2023-04-24T07:40:20;7.38;;;4.82;;
35324;SDS011;35135;47.510;19.036;2023-04-24T07:42:46;7.90;;;4.57;;
35324;SDS011;35135;47.510;19.036;2023-04-24T07:45:15;6.00;;;4.72;;
35324;SDS011;35135;47.510;19.036;2023-04-24T07:47:41;5.68;;;4.90;;
35324;SDS011;35135;47.510;19.036;2023-04-24T07:50:11;5.90;;;4.68;;
35324;SDS011;35135;47.510;19.036;2023-04-24T07:52:37;5.57;;;4.80;;
35324;SDS011;35135;47.510;19.036;2023-04-24T07:55:03;8.23;;;4.55;;
35324;SDS011;35135;47.510;19.036;2023-04-24T07:57:29;5.95;;;4.55;;
35324;SDS011;35135;47.510;19.036;2023-04-24T07:59:55;5.72;;;4.70;;
35324;SDS011;35135;47.510;19.036;2023-04-24T08:02:21;7.15;;;4.68;;
35324;SDS011;35135;47.510;19.036;2023-04-24T08:04:51;6.35;;;4.22;;
35324;SDS011;35135;47.510;19.036;2023-04-24T08:07:20;5.20;;;4.53;;
35324;SDS011;35135;47.510;19.036;2023-04-24T08:09:45;7.20;;;4.68;;
35324;SDS011;35135;47.510;19.036;2023-04-24T08:12:11;6.55;;;4.32;;
35324;SDS011;35135;47.510;19.036;2023-04-24T08:14:37;8.32;;;4.97;;
35324;SDS011;35135;47.510;19.036;2023-04-24T08:17:02;6.47;;;4.55;;
35324;SDS011;35135;47.510;19.036;2023-04-24T08:19:28;4.82;;;4.30;;
35324;SDS011;35135;47.510;19.036;2023-04-24T08:21:54;5.50;;;4.55;;
35324;SDS011;35135;47.510;19.036;2023-04-24T08:24:20;4.97;;;3.90;;
35324;SDS011;35135;47.510;19.036;2023-04-24T08:26:45;5.10;;;4.22;;
35324;SDS011;35135;47.510;19.036;2023-04-24T08:29:15;5.32;;;4.38;;
35324;SDS011;35135;47.510;19.036;2023-04-24T08:31:41;4.65;;;4.05;;
35324;SDS011;35135;47.510;19.036;2023-04-24T08:34:06;6.45;;;4.07;;
35324;SDS011;35135;47.510;19.036;2023-04-24T08:36:32;4.57;;;4.07;;
35324;SDS011;35135;47.510;19.036;2023-04-24T08:38:58;5.05;;;4.03;;
35324;SDS011;35135;47.510;19.036;2023-04-24T08:41:24;6.63;;;4.63;;
35324;SDS011;35135;47.510;19.036;2023-04-24T08:43:51;5.18;;;3.65;;
35324;SDS011;35135;47.510;19.036;2023-04-24T08:46:17;6.15;;;4.70;;
35324;SDS011;35135;47.510;19.036;2023-04-24T08:48:44;4.30;;;3.88;;
35324;SDS011;35135;47.510;19.036;2023-04-24T08:51:10;4.53;;;4.13;;
35324;SDS011;35135;47.510;19.036;2023-04-24T08:53:36;5.35;;;4.20;;
35324;SDS011;35135;47.510;19.036;2023-04-24T08:56:03;5.05;;;4.35;;
35324;SDS011;35135;47.510;19.036;2023-04-24T08:58:29;4.40;;;4.00;;
35324;SDS011;35135;47.510;19.036;2023-04-24T09:00:57;4.25;;;3.85;;
35324;SDS011;35135;47.510;19.036;2023-04-24T09:03:23;4.35;;;3.95;;
35324;SDS011;35135;47.510;19.036;2023-04-24T09:05:50;5.20;;;4.40;;
35324;SDS011;35135;47.510;19.036;2023-04-24T09:08:18;5.40;;;4.07;;
35324;SDS011;35135;47.510;19.036;2023-04-24T09:10:44;4.00;;;3.55;;
35324;SDS011;35135;47.510;19.036;2023-04-24T09:13:10;5.50;;;3.78;;
35324;SDS011;35135;47.510;19.036;2023-04-24T09:15:37;4.75;;;4.10;;
35324;SDS011;35135;47.510;19.036;2023-04-24T09:18:04;4.72;;;3.85;;
35324;SDS011;35135;47.510;19.036;2023-04-24T09:20:30;4.60;;;4.07;;
35324;SDS011;35135;47.510;19.036;2023-04-24T09:22:56;4.90;;;3.70;;
35324;SDS011;35135;47.510;19.036;2023-04-24T09:25:24;5.20;;;3.83;;
35324;SDS011;35135;47.510;19.036;2023-04-24T09:28:00;4.53;;;3.50;;
35324;SDS011;35135;47.510;19.036;2023-04-24T09:30:27;4.25;;;3.55;;
35324;SDS011;35135;47.510;19.036;2023-04-24T09:33:09;4.22;;;3.83;;
35324;SDS011;35135;47.510;19.036;2023-04-24T09:35:36;3.97;;;3.55;;
35324;SDS011;35135;47.510;19.036;2023-04-24T09:38:05;5.05;;;3.95;;
35324;SDS011;35135;47.510;19.036;2023-04-24T09:40:30;4.85;;;3.72;;
35324;SDS011;35135;47.510;19.036;2023-04-24T09:42:59;4.93;;;4.00;;
35324;SDS011;35135;47.510;19.036;2023-04-24T09:45:28;5.95;;;3.90;;
35324;SDS011;35135;47.510;19.036;2023-04-24T09:50:25;4.93;;;4.20;;
35324;SDS011;35135;47.510;19.036;2023-04-24T09:52:59;4.20;;;3.80;;
35324;SDS011;35135;47.510;19.036;2023-04-24T09:55:28;5.10;;;4.00;;
35324;SDS011;35135;47.510;19.036;2023-04-24T09:57:55;5.43;;;3.70;;
35324;SDS011;35135;47.510;19.036;2023-04-24T10:00:26;4.65;;;4.22;;
35324;SDS011;35135;47.510;19.036;2023-04-24T10:02:57;4.65;;;4.18;;
35324;SDS011;35135;47.510;19.036;2023-04-24T10:05:27;4.03;;;3.22;;
35324;SDS011;35135;47.510;19.036;2023-04-24T10:08:04;3.42;;;3.05;;
35324;SDS011;35135;47.510;19.036;2023-04-24T10:10:31;4.18;;;3.75;;
35324;SDS011;35135;47.510;19.036;2023-04-24T10:12:59;5.90;;;3.92;;
35324;SDS011;35135;47.510;19.036;2023-04-24T10:15:26;4.88;;;3.53;;
35324;SDS011;35135;47.510;19.036;2023-04-24T10:17:52;4.93;;;3.85;;
35324;SDS011;35135;47.510;19.036;2023-04-24T10:20:19;4.15;;;3.75;;
35324;SDS011;35135;47.510;19.036;2023-04-24T10:22:47;3.70;;;3.33;;
35324;SDS011;35135;47.510;19.036;2023-04-24T10:25:18;3.55;;;3.25;;
35324;SDS011;35135;47.510;19.036;2023-04-24T10:27:47;4.88;;;3.38;;
35324;SDS011;35135;47.510;19.036;2023-04-24T10:30:14;4.28;;;3.90;;
35324;SDS011;35135;47.510;19.036;2023-04-24T10:32:40;4.22;;;3.45;;
35324;SDS011;35135;47.510;19.036;2023-04-24T10:35:06;4.70;;;4.20;;
35324;SDS011;35135;47.510;19.036;2023-04-24T10:37:40;4.57;;;4.05;;
35324;SDS011;35135;47.510;19.036;2023-04-24T10:40:16;3.78;;;3.33;;
35324;SDS011;35135;47.510;19.036;2023-04-24T10:42:47;4.82;;;3.40;;
35324;SDS011;35135;47.510;19.036;2023-04-24T10:47:50;4.55;;;3.60;;
35324;SDS011;35135;47.510;19.036;2023-04-24T10:50:17;3.67;;;3.38;;
35324;SDS011;35135;47.510;19.036;2023-04-24T10:52:46;3.92;;;3.60;;
35324;SDS011;35135;47.510;19.036;2023-04-24T10:55:13;3.90;;;3.50;;
35324;SDS011;35135;47.510;19.036;2023-04-24T10:57:40;3.70;;;3.40;;
35324;SDS011;35135;47.510;19.036;2023-04-24T11:00:27;3.95;;;3.60;;
35324;SDS011;35135;47.510;19.036;2023-04-24T11:02:53;4.63;;;3.50;;
35324;SDS011;35135;47.510;19.036;2023-04-24T11:05:20;3.47;;;3.17;;
35324;SDS011;35135;47.510;19.036;2023-04-24T11:10:46;4.05;;;3.65;;
35324;SDS011;35135;47.510;19.036;2023-04-24T11:13:21;3.72;;;3.40;;
35324;SDS011;35135;47.510;19.036;2023-04-24T11:16:11;3.85;;;3.45;;
35324;SDS011;35135;47.510;19.036;2023-04-24T11:19:02;4.00;;;3.60;;
35324;SDS011;35135;47.510;19.036;2023-04-24T11:29:41;3.77;;;3.40;;
35324;SDS011;35135;47.510;19.036;2023-04-24T11:32:17;4.53;;;3.33;;
35324;SDS011;35135;47.510;19.036;2023-04-24T11:34:53;3.88;;;3.28;;
35324;SDS011;35135;47.510;19.036;2023-04-24T11:37:21;4.00;;;3.33;;
35324;SDS011;35135;47.510;19.036;2023-04-24T11:39:52;4.90;;;3.60;;
35324;SDS011;35135;47.510;19.036;2023-04-24T11:42:19;3.30;;;3.00;;
35324;SDS011;35135;47.510;19.036;2023-04-24T11:44:47;4.88;;;3.50;;
35324;SDS011;35135;47.510;19.036;2023-04-24T11:47:14;3.90;;;3.50;;
35324;SDS011;35135;47.510;19.036;2023-04-24T11:49:40;3.70;;;3.35;;
35324;SDS011;35135;47.510;19.036;2023-04-24T11:52:05;4.13;;;3.72;;
35324;SDS011;35135;47.510;19.036;2023-04-24T11:54:31;3.55;;;3.25;;
35324;SDS011;35135;47.510;19.036;2023-04-24T11:56:57;3.67;;;3.33;;
35324;SDS011;35135;47.510;19.036;2023-04-24T11:59:23;3.75;;;3.45;;
35324;SDS011;35135;47.510;19.036;2023-04-24T12:01:49;3.75;;;3.45;;
35324;SDS011;35135;47.510;19.036;2023-04-24T12:04:15;5.15;;;3.55;;
35324;SDS011;35135;47.510;19.036;2023-04-24T12:07:03;5.03;;;3.50;;
35324;SDS011;35135;47.510;19.036;2023-04-24T12:09:55;6.03;;;3.60;;
35324;SDS011;35135;47.510;19.036;2023-04-24T12:14:52;5.82;;;3.65;;
35324;SDS011;35135;47.510;19.036;2023-04-24T12:17:25;9.48;;;3.55;;
35324;SDS011;35135;47.510;19.036;2023-04-24T12:20:06;5.50;;;3.55;;
35324;SDS011;35135;47.510;19.036;2023-04-24T12:25:19;5.45;;;3.30;;
35324;SDS011;35135;47.510;19.036;2023-04-24T12:27:51;5.35;;;3.10;;
35324;SDS011;35135;47.510;19.036;2023-04-24T12:30:38;4.63;;;3.25;;
35324;SDS011;35135;47.510;19.036;2023-04-24T12:33:06;4.75;;;3.15;;
35324;SDS011;35135;47.510;19.036;2023-04-24T12:35:32;5.97;;;3.67;;
35324;SDS011;35135;47.510;19.036;2023-04-24T12:38:06;6.35;;;3.75;;
35324;SDS011;35135;47.510;19.036;2023-04-24T12:40:37;5.47;;;3.78;;
35324;SDS011;35135;47.510;19.036;2023-04-24T12:43:12;4.03;;;3.40;;
35324;SDS011;35135;47.510;19.036;2023-04-24T12:45:42;5.07;;;4.10;;
35324;SDS011;35135;47.510;19.036;2023-04-24T12:48:07;5.40;;;3.70;;
35324;SDS011;35135;47.510;19.036;2023-04-24T12:50:33;7.32;;;3.70;;
35324;SDS011;35135;47.510;19.036;2023-04-24T12:52:59;4.38;;;3.78;;
35324;SDS011;35135;47.510;19.036;2023-04-24T12:55:25;6.95;;;3.50;;
35324;SDS011;35135;47.510;19.036;2023-04-24T12:57:51;4.13;;;3.72;;
35324;SDS011;35135;47.510;19.036;2023-04-24T13:00:18;5.35;;;3.78;;
35324;SDS011;35135;47.510;19.036;2023-04-24T13:02:43;4.20;;;3.60;;
35324;SDS011;35135;47.510;19.036;2023-04-24T13:05:09;5.65;;;3.88;;
35324;SDS011;35135;47.510;19.036;2023-04-24T13:07:36;5.32;;;3.78;;
35324;SDS011;35135;47.510;19.036;2023-04-24T13:10:02;5.15;;;4.63;;
35324;SDS011;35135;47.510;19.036;2023-04-24T13:12:28;4.57;;;4.18;;
35324;SDS011;35135;47.510;19.036;2023-04-24T13:14:53;7.07;;;4.40;;
35324;SDS011;35135;47.510;19.036;2023-04-24T13:17:19;7.10;;;4.93;;
35324;SDS011;35135;47.510;19.036;2023-04-24T13:19:45;6.32;;;4.13;;
35324;SDS011;35135;47.510;19.036;2023-04-24T13:22:11;5.50;;;4.60;;
35324;SDS011;35135;47.510;19.036;2023-04-24T13:24:38;4.85;;;3.97;;
35324;SDS011;35135;47.510;19.036;2023-04-24T13:27:07;4.50;;;4.10;;
35324;SDS011;35135;47.510;19.036;2023-04-24T13:29:33;5.68;;;3.70;;
35324;SDS011;35135;47.510;19.036;2023-04-24T13:31:59;6.63;;;4.40;;
35324;SDS011;35135;47.510;19.036;2023-04-24T13:34:25;4.90;;;4.18;;
35324;SDS011;35135;47.510;19.036;2023-04-24T13:36:52;7.35;;;4.90;;
35324;SDS011;35135;47.510;19.036;2023-04-24T13:39:20;6.68;;;4.13;;
35324;SDS011;35135;47.510;19.036;2023-04-24T13:41:46;6.80;;;4.38;;
35324;SDS011;35135;47.510;19.036;2023-04-24T13:44:13;5.20;;;4.22;;
35324;SDS011;35135;47.510;19.036;2023-04-24T13:46:39;4.88;;;4.00;;
35324;SDS011;35135;47.510;19.036;2023-04-24T13:49:05;8.80;;;4.68;;
35324;SDS011;35135;47.510;19.036;2023-04-24T13:51:31;7.95;;;4.40;;
35324;SDS011;35135;47.510;19.036;2023-04-24T13:53:57;5.38;;;4.43;;
35324;SDS011;35135;47.510;19.036;2023-04-24T13:56:22;5.00;;;3.75;;
35324;SDS011;35135;47.510;19.036;2023-04-24T13:58:48;7.45;;;4.05;;
35324;SDS011;35135;47.510;19.036;2023-04-24T14:01:14;5.78;;;4.47;;
35324;SDS011;35135;47.510;19.036;2023-04-24T14:03:41;7.38;;;4.40;;
35324;SDS011;35135;47.510;19.036;2023-04-24T14:06:08;18.05;;;5.70;;
35324;SDS011;35135;47.510;19.036;2023-04-24T14:08:34;5.82;;;4.25;;
35324;SDS011;35135;47.510;19.036;2023-04-24T14:11:00;5.57;;;3.90;;
35324;SDS011;35135;47.510;19.036;2023-04-24T14:13:25;6.80;;;3.90;;
35324;SDS011;35135;47.510;19.036;2023-04-24T14:15:52;5.85;;;4.35;;
35324;SDS011;35135;47.510;19.036;2023-04-24T14:18:18;5.95;;;4.15;;
35324;SDS011;35135;47.510;19.036;2023-04-24T14:20:44;9.15;;;4.80;;
35324;SDS011;35135;47.510;19.036;2023-04-24T14:23:10;4.85;;;4.00;;
35324;SDS011;35135;47.510;19.036;2023-04-24T14:25:36;7.32;;;4.40;;
35324;SDS011;35135;47.510;19.036;2023-04-24T14:28:01;5.28;;;4.40;;
35324;SDS011;35135;47.510;19.036;2023-04-24T14:30:27;5.38;;;4.20;;
35324;SDS011;35135;47.510;19.036;2023-04-24T14:32:53;6.00;;;4.10;;
35324;SDS011;35135;47.510;19.036;2023-04-24T14:35:18;4.35;;;3.95;;
35324;SDS011;35135;47.510;19.036;2023-04-24T14:37:44;4.95;;;3.78;;
35324;SDS011;35135;47.510;19.036;2023-04-24T14:40:10;4.13;;;3.72;;
35324;SDS011;35135;47.510;19.036;2023-04-24T14:42:37;5.78;;;4.10;;
35324;SDS011;35135;47.510;19.036;2023-04-24T14:45:02;4.70;;;4.30;;
35324;SDS011;35135;47.510;19.036;2023-04-24T14:47:28;7.53;;;3.70;;
35324;SDS011;35135;47.510;19.036;2023-04-24T14:49:54;5.63;;;3.60;;
35324;SDS011;35135;47.510;19.036;2023-04-24T14:52:20;4.80;;;3.75;;
35324;SDS011;35135;47.510;19.036;2023-04-24T14:54:46;7.22;;;4.20;;